Tiempo atmosférico en la estación meteorológica de Arico, Santa Cruz de Tenerife (418 m.)

Fecha
DESCASC
Temp. máxima en grados centígrados (hora)
DESCASC
Temp. mínima en grados centígrados (hora)
DESCASC
Temp. media en grados centígrados
DESCASC
Racha de viento máxima en m/sg (hora)
DESCASC
Velocidad máxima media en intervalos de 10 minutos(hora)
DESCASC
Precipitaciones diarias en mm
DESCASC
Precipitaciones de 00:00 a 06:00 en mm
DESCASC
Precipitaciones de 06:00 a 12:00 en mm
DESCASC
Precipitaciones de 12:00 a 18:00 en mm
DESCASC
Precipitaciones de 18:00 a 24:00 en mm
DESCASC
24-09-2017 33.2 (15:40) 17.1 (06:20) 25.2 8.33 (01:30) 5.83 (11:30) 0 0 0 0 0
23-09-2017 24.3 (13:40) 17.5 (05:40) 20.9 13.61 (18:00) 8.61 (17:10) 0 0 0 0 0
22-09-2017 25.2 (14:40) 17.1 (07:40) 21.2 18.61 (16:50) 11.39 (12:30) 0 0 0 0 0
21-09-2017 24.7 (16:20) 18.4 (00:00) 21.6 16.39 (12:50) 8.33 (13:40) 0 0 0 0 0
20-09-2017 24.2 (15:00) 17.7 (00:00) 21 9.72 (13:30) 6.39 (12:30) 0 0 0 0 0
19-09-2017 24.3 (13:50) 16.9 (00:00) 20.6 9.72 (11:50) 6.39 (12:10) 0 0 0 0 0
18-09-2017 24.3 (14:40) 16.8 (00:00) 20.5 11.11 (11:40) 7.22 (12:30) 0 0 0 0 0
17-09-2017 23.9 (14:10) 17.9 (00:00) 20.9 14.17 (14:30) 8.61 (13:20) 0 0 0 0 0
16-09-2017 24 (14:50) 18.5 (00:00) 21.3 13.89 (13:30) 9.17 (14:30) 0 0 0 0 0
15-09-2017 24.7 (11:40) 19.3 (00:00) 22 13.06 (15:50) 7.5 (15:10) 0 0 0 0 0
14-09-2017 27.9 (13:50) 18.3 (00:00) 23.1 6.94 (18:20) 5 (15:10) 0 0 0 0 0
13-09-2017 26.5 (15:10) 16.8 (00:00) 21.6 6.94 (12:10) 4.17 (22:20) 0 0 0 0 0
12-09-2017 23.7 (12:50) 17.6 (00:00) 20.7 9.17 (12:30) 5.56 (13:00) 4 4 0 0 0
11-09-2017 26.3 (13:50) 18.5 (00:00) 22.4 7.22 (13:50) 4.17 (12:30) 0 0 0 0 0
10-09-2017 25.2 (15:40) 18 (00:00) 21.6 13.06 (16:50) 8.89 (13:40) 0 0 0 0 0
09-09-2017 26.4 (15:30) 17.8 (00:00) 22.1 9.72 (22:20) 6.67 (13:40) 0 0 0 0 0
08-09-2017 26.6 (15:40) 17.7 (00:00) 22.2 9.17 (15:10) 6.39 (15:10) 0 0 0 0 0
07-09-2017 25.2 (15:00) 18.3 (00:00) 21.8 15 (13:50) 8.33 (12:50) 0 0 0 0 0
06-09-2017 26.6 (14:20) 18 (00:00) 22.3 13.61 (13:30) 8.61 (16:50) 0 0 0 0 0
05-09-2017 24.5 (13:50) 19.6 (00:00) 22.1 15.56 (12:50) 8.89 (14:10) 0 0 0 0 0
04-09-2017 27.8 (16:30) 18.1 (00:00) 22.9 12.78 (20:30) 6.94 (20:00) 0 0 0 0 0
03-09-2017 26.1 (15:50) 18.6 (00:00) 22.4 11.39 (10:50) 7.22 (11:50) 0 0 0 0 0
02-09-2017 24.4 (16:10) 17.5 (00:00) 20.9 10.83 (14:00) 7.5 (14:20) 0 0 0 0 0
01-09-2017 24.2 (14:30) 18.5 (00:00) 21.4 10.28 (14:40) 6.39 (15:40) 0 0 0 0 0
31-08-2017 25.8 (16:10) 18.2 (00:00) 22 16.11 (12:20) 8.89 (12:20) 0 0 0 0 0
30-08-2017 26 (13:50) 18 (00:00) 22 13.89 (12:20) 8.61 (12:20) 0 0 0 0 0
29-08-2017 25.3 (14:10) 17.6 (00:00) 21.4 14.17 (12:50) 8.33 (12:50) 0 0 0 0 0
28-08-2017 24.5 (13:10) 18.8 (00:00) 21.6 14.17 (01:50) 8.33 (14:20) 0 0 0 0 0
27-08-2017 25.3 (12:50) 19.3 (00:00) 22.3 11.39 (13:20) 7.5 (13:20) 0 0 0 0 0
26-08-2017 29.7 (15:50) 20.6 (00:00) 25.2 6.39 (15:00) 4.17 (14:50) 0 0 0 0 0

Gráficas

Temp. máximas Temp. mínimas Temp. medias Precipitaciones Rachas de viento máximas Velocidades máximas media en intervalos de 10 minutos

Datos horarios

Fecha y hora oficial Temperatura (ºC) Velocidad del viento (km/h) Dirección del viento Racha (km/h) Dirección de racha Precipitación (mm) Presión (hPa) Tendencia (hPa) Humedad (%)
2017-09-24 23:00:00 28.9 13 Noroeste 24 Oeste 0 -- -- 33
2017-09-24 22:00:00 27.6 10 Oeste 18 Noroeste 0 -- -- 40
2017-09-24 21:00:00 25.5 3 Norte 12 Este 0 -- -- 58
2017-09-24 20:00:00 26.5 4 Sur 17 Oeste 0 -- -- 56
2017-09-24 19:00:00 24.4 5 Nordeste 15 Este 0 -- -- 75
2017-09-24 18:00:00 26.1 6 Nordeste 18 Este 0 -- -- 70
2017-09-24 17:00:00 27.5 7 Nordeste 17 Este 0 -- -- 65
2017-09-24 16:00:00 30.5 6 Nordeste 22 Sudeste 0 -- -- 52
2017-09-24 15:00:00 31.8 7 Norte 17 Noroeste 0 -- -- 33
2017-09-24 14:00:00 29.1 6 Este 18 Este 0 -- -- 47
2017-09-24 13:00:00 26.3 8 Este 25 Este 0 -- -- 68
2017-09-24 12:00:00 23.7 15 Nordeste 29 Nordeste 0 -- -- 77
2017-09-24 11:00:00 22.5 15 Nordeste 24 Este 0 -- -- 77
2017-09-24 10:00:00 20.9 11 Noroeste 23 Nordeste 0 -- -- 82
2017-09-24 09:00:00 18.6 12 Nordeste 24 Norte 0 -- -- 95
2017-09-24 08:00:00 17.6 8 Norte 20 Norte 0 -- -- 95
2017-09-24 07:00:00 17.1 8 Nordeste 14 Nordeste 0 -- -- 94
2017-09-24 06:00:00 17.2 0 Calma 10 Este 0 -- -- 92
2017-09-24 05:00:00 17.4 7 Noroeste 15 Este 0 -- -- 92
2017-09-24 04:00:00 17.6 4 Nordeste 13 Norte 0 -- -- 92
2017-09-24 03:00:00 18.1 6 Norte 20 Nordeste 0 -- -- 91
2017-09-24 02:00:00 18.9 14 Nordeste 30 Nordeste 0 -- -- 89
2017-09-24 01:00:00 19 17 Nordeste 27 Nordeste 0 -- -- 91
2017-09-24 00:00:00 19.2 21 Nordeste 31 Nordeste 0 -- -- 89
2017-09-23 23:00:00 19.1 18 Nordeste 32 Nordeste 0 -- -- 90
2017-09-23 22:00:00 19 20 Nordeste 32 Nordeste 0 -- -- 88
2017-09-23 21:00:00 19.1 21 Nordeste 36 Nordeste 0 -- -- 85
2017-09-23 20:00:00 19.6 21 Nordeste 37 Nordeste 0 -- -- 83
2017-09-23 19:00:00 20.2 20 Nordeste 41 Nordeste 0 -- -- 80
2017-09-23 18:00:00 20.3 27 Nordeste 49 Nordeste 0 -- -- 83
2017-09-23 17:00:00 21.6 23 Nordeste 45 Nordeste 0 -- -- 76
2017-09-23 16:00:00 22.8 30 Nordeste 46 Este 0 -- -- 70
2017-09-23 15:00:00 23.6 27 Nordeste 42 Nordeste 0 -- -- 70
2017-09-23 14:00:00 23.8 26 Nordeste 42 Este 0 -- -- 68
2017-09-23 13:00:00 21.8 23 Nordeste 40 Este 0 -- -- 76
2017-09-23 12:00:00 21.8 21 Nordeste 43 Nordeste 0 -- -- 74
2017-09-23 11:00:00 21.6 18 Nordeste 32 Este 0 -- -- 73
2017-09-23 10:00:00 20.1 17 Nordeste 30 Nordeste 0 -- -- 75
2017-09-23 09:00:00 19.4 13 Nordeste 27 Nordeste 0 -- -- 72
2017-09-23 08:00:00 18.5 12 Nordeste 21 Nordeste 0 -- -- 71
2017-09-23 07:00:00 18.4 13 Nordeste 34 Este 0 -- -- 74
2017-09-23 06:00:00 17.7 10 Nordeste 18 Este 0 -- -- 78
2017-09-23 05:00:00 18.1 9 Nordeste 29 Nordeste 0 -- -- 77
2017-09-23 04:00:00 18.1 8 Nordeste 38 Nordeste 0 -- -- 80
2017-09-23 03:00:00 19 25 Nordeste 37 Nordeste 0 -- -- 75
2017-09-23 02:00:00 18.4 19 Nordeste 30 Nordeste 0 -- -- 76
2017-09-23 01:00:00 18.3 6 Norte 30 Nordeste 0 -- -- 81
2017-09-23 00:00:00 18 7 Nordeste 16 Nordeste 0 -- -- 80
2017-09-22 23:00:00 18.1 3 Oeste 10 Sudoeste 0 -- -- 78
2017-09-22 22:00:00 18.6 4 Sudoeste 16 Este 0 -- -- 75
2017-09-22 21:00:00 19.2 3 Este 32 Nordeste 0 -- -- 77
2017-09-22 20:00:00 20.3 11 Nordeste 48 Nordeste 0 -- -- 73
2017-09-22 19:00:00 21.8 26 Nordeste 49 Este 0 -- -- 63
2017-09-22 18:00:00 22.9 28 Nordeste 53 Este 0 -- -- 60
2017-09-22 17:00:00 23.6 37 Nordeste 67 Nordeste 0 -- -- 59
2017-09-22 16:00:00 24.7 35 Nordeste 54 Este 0 -- -- 51
2017-09-22 15:00:00 24.9 33 Nordeste 53 Nordeste 0 -- -- 56
2017-09-22 14:00:00 24.4 31 Nordeste 60 Nordeste 0 -- -- 59
2017-09-22 13:00:00 23.4 39 Nordeste 62 Nordeste 0 -- -- 61
2017-09-22 12:00:00 23.3 36 Nordeste 54 Nordeste 0 -- -- 65
2017-09-22 11:00:00 23.4 29 Nordeste 53 Nordeste 0 -- -- 62
2017-09-22 10:00:00 22.6 18 Nordeste 35 Este 0 -- -- 55
2017-09-22 09:00:00 19.8 8 Sur 22 Oeste 0 -- -- 69
2017-09-22 08:00:00 17.4 13 Noroeste 20 Oeste 0 -- -- 78
2017-09-22 07:00:00 17.5 9 Oeste 18 Oeste 0 -- -- 77
2017-09-22 06:00:00 17.6 6 Oeste 19 Oeste 0 -- -- 76
2017-09-22 05:00:00 18.1 15 Oeste 22 Oeste 0 -- -- 73
2017-09-22 04:00:00 17.9 10 Noroeste 15 Oeste 0 -- -- 76
2017-09-22 03:00:00 18.1 12 Oeste 16 Oeste 0 -- -- 77
2017-09-22 02:00:00 18.4 13 Oeste 17 Oeste 0 -- -- 80
2017-09-22 01:00:00 18.8 4 Noroeste 8 Noroeste 0 -- -- 78
2017-09-22 00:00:00 18.7 4 Noroeste 10 Oeste 0 -- -- 81
2017-09-21 23:00:00 19 5 Oeste 12 Oeste 0 -- -- 80
2017-09-21 22:00:00 19.6 9 Oeste 17 Oeste 0 -- -- 79
2017-09-21 21:00:00 20.2 9 Sudoeste 15 Sudoeste 0 -- -- 73
2017-09-21 20:00:00 21 7 Sur 20 Este 0 -- -- 69
2017-09-21 19:00:00 22 9 Este 37 Nordeste 0 -- -- 66
2017-09-21 18:00:00 22.3 21 Este 41 Nordeste 0 -- -- 70
2017-09-21 17:00:00 24.3 21 Este 43 Nordeste 0 -- -- 62
2017-09-21 16:00:00 24.4 27 Nordeste 49 Nordeste 0 -- -- 61
2017-09-21 15:00:00 24.2 22 Nordeste 48 Nordeste 0 -- -- 65
2017-09-21 14:00:00 22.9 27 Nordeste 49 Este 0 -- -- 70
2017-09-21 13:00:00 22.9 28 Nordeste 59 Este 0 -- -- 64
2017-09-21 12:00:00 23.6 14 Nordeste 38 Este 0 -- -- 63
2017-09-21 11:00:00 21.5 6 Sudoeste 15 Sudoeste 0 -- -- 74
2017-09-21 10:00:00 21.6 4 Sudoeste 13 Este 0 -- -- 77
2017-09-21 09:00:00 19.8 10 Oeste 15 Oeste 0 -- -- 84
2017-09-21 08:00:00 19 4 Sur 8 Oeste 0 -- -- 89
2017-09-21 07:00:00 18.9 4 Oeste 12 Oeste 0 -- -- 90
2017-09-21 06:00:00 19.1 7 Sudoeste 11 Sudoeste 0 -- -- 90
2017-09-21 05:00:00 19.2 5 Sudoeste 11 Sudoeste 0 -- -- 90
2017-09-21 04:00:00 19.1 9 Sudoeste 23 Sudoeste 0 -- -- 89
2017-09-21 03:00:00 18.5 13 Sudoeste 19 Sur 0 -- -- 89
2017-09-21 02:00:00 19 9 Sudoeste 16 Sudoeste 0 -- -- 86
2017-09-21 01:00:00 19.6 12 Oeste 18 Sudoeste 0 -- -- 84
2017-09-21 00:00:00 19.5 4 Sudoeste 21 Oeste 0 -- -- 85
2017-09-20 23:00:00 19.6 11 Sudoeste 29 Sudoeste 0 -- -- 86
2017-09-20 22:00:00 19.7 18 Sudoeste 28 Sudoeste 0 -- -- 87
2017-09-20 21:00:00 19.9 19 Sudoeste 26 Sudoeste 0 -- -- 85
2017-09-20 20:00:00 20.1 8 Sur 23 Sudeste 0 -- -- 86
2017-09-20 19:00:00 20.8 11 Este 22 Este 0 -- -- 83
2017-09-20 18:00:00 21.3 11 Este 23 Este 0 -- -- 79
2017-09-20 17:00:00 22.2 14 Este 27 Este 0 -- -- 75
2017-09-20 16:00:00 23.7 15 Este 33 Este 0 -- -- 71
2017-09-20 15:00:00 24.2 20 Este 30 Este 0 -- -- 68
2017-09-20 14:00:00 21.9 19 Nordeste 35 Este 0 -- -- 80
2017-09-20 13:00:00 21.7 21 Nordeste 34 Este 0 -- -- 81
2017-09-20 12:00:00 23.7 17 Nordeste 29 Este 0 -- -- 75
2017-09-20 11:00:00 21.7 10 Este 23 Este 0 -- -- 83
2017-09-20 10:00:00 19.9 6 Sur 11 Sudeste 0 -- -- 90
2017-09-20 09:00:00 19.1 6 Oeste 10 Oeste 0 -- -- 91
2017-09-20 08:00:00 18.5 6 Oeste 10 Oeste 0 -- -- 94
2017-09-20 07:00:00 18.3 5 Norte 13 Norte 0 -- -- 95
2017-09-20 06:00:00 18.2 9 Norte 15 Norte 0 -- -- 95
2017-09-20 05:00:00 18.1 7 Norte 17 Nordeste 0 -- -- 96
2017-09-20 04:00:00 18.1 9 Norte 16 Nordeste 0 -- -- 96
2017-09-20 03:00:00 17.9 7 Norte 14 Nordeste 0 -- -- 95
2017-09-20 02:00:00 17.8 7 Nordeste 13 Nordeste 0 -- -- 94
2017-09-20 01:00:00 18 7 Nordeste 14 Nordeste 0 -- -- 94
2017-09-20 00:00:00 18.1 4 Norte 10 Nordeste 0 -- -- 93
2017-09-19 23:00:00 18.3 5 Norte 9 Nordeste 0 -- -- 92
2017-09-19 22:00:00 18.7 5 Nordeste 16 Nordeste 0 -- -- 92
2017-09-19 21:00:00 19 11 Nordeste 21 Nordeste 0 -- -- 92
2017-09-19 20:00:00 19.8 12 Nordeste 22 Nordeste 0 -- -- 88
2017-09-19 19:00:00 20.8 15 Nordeste 24 Nordeste 0 -- -- 84
2017-09-19 18:00:00 22.1 16 Nordeste 33 Este 0 -- -- 79
2017-09-19 17:00:00 23.5 18 Nordeste 28 Nordeste 0 -- -- 74
2017-09-19 16:00:00 24 17 Nordeste 31 Este 0 -- -- 72
2017-09-19 15:00:00 23.8 21 Nordeste 33 Nordeste 0 -- -- 72
2017-09-19 14:00:00 23.5 22 Nordeste 32 Nordeste 0 -- -- 73
2017-09-19 13:00:00 23.9 17 Nordeste 34 Este 0 -- -- 72
2017-09-19 12:00:00 22.7 21 Nordeste 35 Nordeste 0 -- -- 76
2017-09-19 11:00:00 22 17 Nordeste 27 Nordeste 0 -- -- 79
2017-09-19 10:00:00 20.5 16 Nordeste 24 Nordeste 0 -- -- 86
2017-09-19 09:00:00 18.3 12 Nordeste 21 Norte 0 -- -- 96
2017-09-19 08:00:00 17.7 14 Nordeste 22 Nordeste 0 -- -- 97
2017-09-19 07:00:00 17.2 12 Nordeste 27 Nordeste 0 -- -- 97
2017-09-19 06:00:00 16.9 6 Nordeste 13 Norte 0 -- -- 96
2017-09-19 05:00:00 17.2 7 Norte 12 Norte 0 -- -- 96
2017-09-19 04:00:00 17.1 4 Nordeste 8 Nordeste 0 -- -- 95
2017-09-19 03:00:00 17.3 5 Norte 13 Norte 0 -- -- 95
2017-09-19 02:00:00 17.5 9 Norte 12 Norte 0 -- -- 95
2017-09-19 01:00:00 17.9 8 Nordeste 20 Nordeste 0 -- -- 95
2017-09-19 00:00:00 17.9 8 Nordeste 13 Nordeste 0 -- -- 95
2017-09-18 23:00:00 18.2 4 Este 14 Nordeste 0 -- -- 94
2017-09-18 22:00:00 18.5 9 Nordeste 17 Nordeste 0 -- -- 94
2017-09-18 21:00:00 18.9 9 Nordeste 18 Nordeste 0 -- -- 91
2017-09-18 20:00:00 19.6 13 Nordeste 26 Nordeste 0 -- -- 89
2017-09-18 19:00:00 21.2 14 Nordeste 26 Este 0 -- -- 81
2017-09-18 18:00:00 22.9 15 Nordeste 32 Este 0 -- -- 74
2017-09-18 17:00:00 23.5 19 Nordeste 37 Este 0 -- -- 72
2017-09-18 16:00:00 23.4 23 Nordeste 38 Nordeste 0 -- -- 72
2017-09-18 15:00:00 24 23 Nordeste 38 Este 0 -- -- 70
2017-09-18 14:00:00 24.1 23 Nordeste 39 Nordeste 0 -- -- 69
2017-09-18 13:00:00 23.4 25 Nordeste 38 Nordeste 0 -- -- 72
2017-09-18 12:00:00 22.7 23 Nordeste 40 Nordeste 0 -- -- 75
2017-09-18 11:00:00 21.8 23 Nordeste 36 Nordeste 0 -- -- 78
2017-09-18 10:00:00 20.6 19 Nordeste 30 Nordeste 0 -- -- 80
2017-09-18 09:00:00 17.9 3 Nordeste 11 Nordeste 0 -- -- 91
2017-09-18 08:00:00 16.8 5 Nordeste 19 Nordeste 0 -- -- 92
2017-09-18 07:00:00 16.8 9 Norte 16 Nordeste 0 -- -- 92
2017-09-18 06:00:00 16.9 5 Norte 14 Nordeste 0 -- -- 92
2017-09-18 05:00:00 16.9 8 Norte 19 Este 0 -- -- 93
2017-09-18 04:00:00 17 9 Nordeste 18 Nordeste 0 -- -- 92
2017-09-18 03:00:00 17.1 5 Norte 10 Este 0 -- -- 91
2017-09-18 02:00:00 17.3 4 Nordeste 13 Nordeste 0 -- -- 90
2017-09-18 01:00:00 17.5 4 Norte 19 Nordeste 0 -- -- 90
2017-09-18 00:00:00 18 15 Nordeste 26 Nordeste 0 -- -- 90
2017-09-17 23:00:00 18.2 17 Nordeste 33 Nordeste 0 -- -- 89
2017-09-17 22:00:00 18.4 14 Nordeste 32 Nordeste 0 -- -- 89
2017-09-17 21:00:00 18.7 18 Nordeste 37 Nordeste 0 -- -- 89
2017-09-17 20:00:00 19.2 18 Nordeste 33 Nordeste 0 -- -- 87
2017-09-17 19:00:00 20.2 19 Nordeste 43 Nordeste 0 -- -- 83
2017-09-17 18:00:00 21.4 24 Nordeste 40 Nordeste 0 -- -- 79
2017-09-17 17:00:00 22.5 26 Nordeste 42 Nordeste 0 -- -- 74
2017-09-17 16:00:00 22.9 23 Nordeste 37 Nordeste 0 -- -- 72
2017-09-17 15:00:00 21.1 26 Nordeste 51 Nordeste 0 -- -- 78
2017-09-17 14:00:00 23.4 27 Nordeste 44 Nordeste 0 -- -- 70
2017-09-17 13:00:00 22.9 29 Nordeste 49 Nordeste 0 -- -- 72
2017-09-17 12:00:00 22.6 28 Nordeste 41 Nordeste 0 -- -- 72
2017-09-17 11:00:00 21.7 24 Nordeste 40 Este 0 -- -- 73
2017-09-17 10:00:00 20.8 24 Nordeste 42 Nordeste 0 -- -- 80
2017-09-17 09:00:00 18.9 18 Nordeste 33 Nordeste 0 -- -- 86
2017-09-17 08:00:00 17.9 17 Nordeste 29 Nordeste 0 -- -- 91
2017-09-17 07:00:00 18 16 Nordeste 34 Nordeste 0 -- -- 87
2017-09-17 06:00:00 17.9 18 Nordeste 32 Nordeste 0 -- -- 91
2017-09-17 05:00:00 18 17 Nordeste 31 Nordeste 0 -- -- 92
2017-09-17 04:00:00 18 14 Nordeste 30 Este 0 -- -- 92
2017-09-17 03:00:00 18.2 14 Nordeste 30 Nordeste 0 -- -- 91
2017-09-17 02:00:00 18.3 14 Nordeste 28 Nordeste 0 -- -- 92
2017-09-17 01:00:00 18.4 18 Nordeste 28 Nordeste 0 -- -- 91
2017-09-17 00:00:00 18.5 16 Nordeste 33 Nordeste 0 -- -- 91
2017-09-16 23:00:00 18.8 18 Nordeste 31 Nordeste 0 -- -- 90
2017-09-16 22:00:00 19 18 Nordeste 34 Nordeste 0 -- -- 90
2017-09-16 21:00:00 19.3 17 Nordeste 32 Nordeste 0 -- -- 89
2017-09-16 20:00:00 19.6 18 Nordeste 36 Nordeste 0 -- -- 87
2017-09-16 19:00:00 20.7 23 Nordeste 41 Nordeste 0 -- -- 83
2017-09-16 18:00:00 22.1 22 Nordeste 40 Nordeste 0 -- -- 77
2017-09-16 17:00:00 22.6 26 Nordeste 44 Este 0 -- -- 76
2017-09-16 16:00:00 23.2 27 Nordeste 48 Este 0 -- -- 74
2017-09-16 15:00:00 23.8 31 Nordeste 49 Este 0 -- -- 72
2017-09-16 14:00:00 23.7 29 Nordeste 50 Este 0 -- -- 71
2017-09-16 13:00:00 23.8 29 Nordeste 47 Este 0 -- -- 71
2017-09-16 12:00:00 22.2 26 Nordeste 50 Este 0 -- -- 78
2017-09-16 11:00:00 22.3 26 Nordeste 44 Nordeste 0 -- -- 77
2017-09-16 10:00:00 19.9 20 Nordeste 38 Nordeste 0 -- -- 87
2017-09-16 09:00:00 19.4 21 Nordeste 39 Nordeste 0 -- -- 92
2017-09-16 08:00:00 19 24 Nordeste 36 Nordeste 0 -- -- 93
2017-09-16 07:00:00 19 14 Nordeste 32 Nordeste 0 -- -- 93
2017-09-16 06:00:00 19 22 Nordeste 40 Este 0 -- -- 93
2017-09-16 05:00:00 18.8 11 Nordeste 23 Nordeste 0 -- -- 92
2017-09-16 04:00:00 19.2 6 Este 36 Nordeste 0 -- -- 93
2017-09-16 03:00:00 19.3 19 Nordeste 31 Nordeste 0 -- -- 93
2017-09-16 02:00:00 19.4 19 Nordeste 32 Nordeste 0 -- -- 94
2017-09-16 01:00:00 19.5 11 Nordeste 30 Nordeste 0 -- -- 93
2017-09-16 00:00:00 19.4 17 Nordeste 28 Este 0 -- -- 93
2017-09-15 23:00:00 19.4 14 Nordeste 26 Nordeste 0 -- -- 92
2017-09-15 22:00:00 19.8 12 Nordeste 36 Nordeste 0 -- -- 90
2017-09-15 21:00:00 19.9 24 Nordeste 37 Nordeste 0 -- -- 91
2017-09-15 20:00:00 20.5 16 Nordeste 33 Nordeste 0 -- -- 88
2017-09-15 19:00:00 21.4 21 Nordeste 38 Nordeste 0 -- -- 83
2017-09-15 18:00:00 21.6 24 Nordeste 34 Nordeste 0 -- -- 84
2017-09-15 17:00:00 23.1 19 Nordeste 35 Nordeste 0 -- -- 77
2017-09-15 16:00:00 23 26 Nordeste 47 Este 0 -- -- 81
2017-09-15 15:00:00 23 25 Nordeste 37 Este 0 -- -- 80
2017-09-15 14:00:00 22.8 23 Nordeste 36 Nordeste 0 -- -- 79
2017-09-15 13:00:00 23.6 18 Nordeste 32 Nordeste 0 -- -- 77
2017-09-15 12:00:00 24.2 19 Nordeste 32 Este 0 -- -- 77
2017-09-15 11:00:00 23.8 20 Nordeste 29 Este 0 -- -- 78
2017-09-15 10:00:00 23.1 15 Nordeste 22 Este 0 -- -- 81
2017-09-15 09:00:00 21.3 6 Este 12 Este 0 -- -- 87
2017-09-15 08:00:00 21.8 3 Norte 15 Nordeste 0 -- -- 76
2017-09-15 07:00:00 22.7 12 Norte 18 Norte 0 -- -- 47
2017-09-15 06:00:00 19.9 5 Norte 10 Este 0 -- -- 81
2017-09-15 05:00:00 20.2 6 Norte 12 Este 0 -- -- 79
2017-09-15 04:00:00 20.7 6 Norte 18 Nordeste 0 -- -- 74
2017-09-15 03:00:00 21.9 10 Nordeste 17 Nordeste 0 -- -- 68
2017-09-15 02:00:00 23.1 10 Norte 24 Nordeste 0 -- -- 54
2017-09-15 01:00:00 20.6 11 Norte 17 Norte 0 -- -- 79
2017-09-15 00:00:00 20.1 5 Nordeste 8 Nordeste 0 -- -- 96
2017-09-14 23:00:00 20.1 2 Este 8 Este 0 -- -- 96
2017-09-14 22:00:00 20.2 4 Nordeste 8 Nordeste 0 -- -- 94
2017-09-14 21:00:00 20.8 4 Nordeste 12 Noroeste 0 -- -- 92
2017-09-14 20:00:00 21.3 8 Nordeste 17 Este 0 -- -- 90
2017-09-14 19:00:00 22.2 12 Nordeste 25 Nordeste 0 -- -- 85
2017-09-14 18:00:00 22.9 16 Nordeste 23 Este 0 -- -- 80
2017-09-14 17:00:00 23.5 10 Este 22 Nordeste 0 -- -- 77
2017-09-14 16:00:00 24.3 16 Este 24 Este 0 -- -- 74
2017-09-14 15:00:00 24.8 16 Este 24 Nordeste 0 -- -- 69
2017-09-14 14:00:00 27.7 16 Este 23 Nordeste 0 -- -- 59
2017-09-14 13:00:00 27.5 12 Nordeste 21 Este 0 -- -- 62
2017-09-14 12:00:00 26.1 8 Este 14 Este 0 -- -- 66
2017-09-14 11:00:00 24.8 9 Este 15 Este 0 -- -- 70
2017-09-14 10:00:00 24.7 5 Nordeste 18 Este 0 -- -- 65
2017-09-14 09:00:00 22.6 5 Norte 10 Norte 0 -- -- 61
2017-09-14 08:00:00 18.5 6 Noroeste 10 Norte 0 -- -- 91
2017-09-14 07:00:00 19.2 3 Sur 13 Noroeste 0 -- -- 83
2017-09-14 06:00:00 21.5 5 Norte 12 Noroeste 0 -- -- 51
2017-09-14 05:00:00 20.4 6 Noroeste 13 Noroeste 0 -- -- 55
2017-09-14 04:00:00 20.6 3 Oeste 14 Noroeste 0 -- -- 54
2017-09-14 03:00:00 19.6 4 Norte 12 Noroeste 0 -- -- 66
2017-09-14 02:00:00 20.7 4 Norte 13 Norte 0 -- -- 60
2017-09-14 01:00:00 18.6 11 Noroeste 20 Oeste 0 -- -- 89
2017-09-14 00:00:00 19.4 6 Norte 14 Nordeste 0 -- -- 93
2017-09-13 23:00:00 19.7 8 Nordeste 22 Nordeste 0 -- -- 92
2017-09-13 22:00:00 20.2 15 Nordeste 22 Nordeste 0 -- -- 91
2017-09-13 21:00:00 20.6 12 Nordeste 22 Nordeste 0 -- -- 89
2017-09-13 20:00:00 21.1 11 Nordeste 20 Este 0 -- -- 86
2017-09-13 19:00:00 23.9 11 Este 18 Este 0 -- -- 71
2017-09-13 18:00:00 25.3 12 Este 18 Este 0 -- -- 63
2017-09-13 17:00:00 25.2 8 Nordeste 18 Sudeste 0 -- -- 65
2017-09-13 16:00:00 24.5 11 Nordeste 22 Este 0 -- -- 68
2017-09-13 15:00:00 26 8 Nordeste 22 Este 0 -- -- 65
2017-09-13 14:00:00 26.1 10 Este 20 Este 0 -- -- 62
2017-09-13 13:00:00 25.2 10 Este 25 Este 0 -- -- 62
2017-09-13 12:00:00 24.4 12 Este 22 Este 0 -- -- 65
2017-09-13 11:00:00 23.7 7 Nordeste 19 Este 0 -- -- 64
2017-09-13 10:00:00 22.2 14 Este 20 Este 0 -- -- 68
2017-09-13 09:00:00 20 6 Nordeste 14 Noroeste 0 -- -- 72
2017-09-13 08:00:00 17.2 4 Noroeste 13 Noroeste 0 -- -- 75
2017-09-13 07:00:00 17.1 10 Noroeste 15 Noroeste 0 -- -- 78
2017-09-13 06:00:00 16.9 9 Noroeste 14 Noroeste 0 -- -- 81
2017-09-13 05:00:00 17 7 Noroeste 15 Noroeste 0 -- -- 85
2017-09-13 04:00:00 16.9 9 Noroeste 12 Oeste 0 -- -- 85
2017-09-13 03:00:00 17.6 5 Noroeste 14 Norte 0 -- -- 85
2017-09-13 02:00:00 18.1 10 Norte 16 Norte 0 -- -- 85
2017-09-13 01:00:00 18 8 Norte 19 Nordeste 0 -- -- 89
2017-09-13 00:00:00 18.5 9 Norte 14 Nordeste 0 -- -- 91
2017-09-12 23:00:00 18.8 9 Nordeste 19 Nordeste 0 -- -- 92
2017-09-12 22:00:00 19.4 8 Nordeste 24 Nordeste 0 -- -- 91
2017-09-12 21:00:00 19.7 14 Nordeste 22 Nordeste 0 -- -- 90
2017-09-12 20:00:00 20.1 9 Este 20 Nordeste 0 -- -- 88
2017-09-12 19:00:00 20.8 14 Este 24 Este 0 -- -- 84
2017-09-12 18:00:00 21.9 12 Este 23 Este 0 -- -- 77
2017-09-12 17:00:00 22.3 16 Este 27 Este 0 -- -- 75
2017-09-12 16:00:00 21.9 17 Este 28 Este 0 -- -- 79
2017-09-12 15:00:00 21.3 15 Nordeste 31 Nordeste 0 -- -- 80
2017-09-12 14:00:00 22.3 14 Este 29 Este 0 -- -- 75
2017-09-12 13:00:00 23.7 20 Este 33 Nordeste 0 -- -- 69
2017-09-12 12:00:00 23 17 Nordeste 29 Este 0 -- -- 70
2017-09-12 11:00:00 21.7 5 Este 16 Sur 0 -- -- 74
2017-09-12 10:00:00 20.2 5 Sur 13 Sudeste 0 -- -- 83
2017-09-12 09:00:00 19.1 4 Oeste 7 Este 0 -- -- 89
2017-09-12 08:00:00 17.7 3 Sudeste 12 Noroeste 0 -- -- 92
2017-09-12 07:00:00 17.8 3 Noroeste 8 Nordeste 0 -- -- 92
2017-09-12 06:00:00 18.1 0 Calma 17 Nordeste 0 -- -- 95
2017-09-12 05:00:00 18.4 6 Nordeste 17 Este 0 -- -- 97
2017-09-12 04:00:00 18.6 8 Nordeste 19 Este 0.8 -- -- 98
2017-09-12 03:00:00 18.8 9 Nordeste 18 Nordeste 1.6 -- -- 97
2017-09-12 02:00:00 19 8 Nordeste 19 Nordeste 1.4 -- -- 97
2017-09-12 01:00:00 19.6 11 Nordeste 19 Nordeste 0.2 -- -- 94
2017-09-12 00:00:00 19.6 15 Nordeste 22 Nordeste 0 -- -- 87
2017-09-11 23:00:00 20.3 3 Sudeste 11 Sudeste 0 -- -- 88
2017-09-11 22:00:00 20.3 8 Sur 16 Sur 0 -- -- 86
2017-09-11 21:00:00 20.4 11 Sudoeste 17 Sudoeste 0 -- -- 87
2017-09-11 20:00:00 20.7 11 Sur 17 Sur 0 -- -- 86
2017-09-11 19:00:00 21.7 8 Sur 15 Sudeste 0 -- -- 84
2017-09-11 18:00:00 22.2 9 Sudeste 16 Sudeste 0 -- -- 80
2017-09-11 17:00:00 22.5 5 Este 14 Este 0 -- -- 80
2017-09-11 16:00:00 22.7 8 Este 21 Sudeste 0 -- -- 77
2017-09-11 15:00:00 24.2 11 Este 25 Este 0 -- -- 67
2017-09-11 14:00:00 26.1 13 Este 26 Nordeste 0 -- -- 61
2017-09-11 13:00:00 24.6 12 Este 23 Nordeste 0 -- -- 67
2017-09-11 12:00:00 23 9 Este 22 Nordeste 0 -- -- 70
2017-09-11 11:00:00 21.4 12 Este 21 Este 0 -- -- 73
2017-09-11 10:00:00 20.8 4 Nordeste 12 Este 0 -- -- 76
2017-09-11 09:00:00 19.8 8 Oeste 15 Oeste 0 -- -- 78
2017-09-11 08:00:00 19.2 9 Oeste 13 Sudoeste 0 -- -- 89
2017-09-11 07:00:00 19 4 Nordeste 17 Este 0 -- -- 90
2017-09-11 06:00:00 19.3 10 Sudoeste 14 Sudoeste 0 -- -- 90
2017-09-11 05:00:00 19.1 9 Sudoeste 17 Sudoeste 0 -- -- 92
2017-09-11 04:00:00 19 3 Sudeste 9 Oeste 0 -- -- 89
2017-09-11 03:00:00 18.6 8 Oeste 10 Oeste 0 -- -- 91
2017-09-11 02:00:00 19.2 3 Sudoeste 5 Sudoeste 0 -- -- 87
2017-09-11 01:00:00 19.9 3 Sudeste 10 Sudoeste 0 -- -- 85
2017-09-11 00:00:00 19.9 6 Sudoeste 13 Sudeste 0 -- -- 88
2017-09-10 23:00:00 19.8 7 Sudeste 24 Este 0 -- -- 88
2017-09-10 22:00:00 19.6 6 Oeste 15 Sudoeste 0 -- -- 80
2017-09-10 21:00:00 20 12 Sudoeste 31 Nordeste 0 -- -- 79
2017-09-10 20:00:00 20.5 4 Nordeste 22 Este 0 -- -- 77
2017-09-10 19:00:00 21.1 17 Nordeste 34 Este 0 -- -- 78
2017-09-10 18:00:00 22 23 Nordeste 41 Este 0 -- -- 75
2017-09-10 17:00:00 24 26 Nordeste 47 Nordeste 0 -- -- 64
2017-09-10 16:00:00 25.2 21 Nordeste 46 Este 0 -- -- 59
2017-09-10 15:00:00 24.4 30 Nordeste 45 Nordeste 0 -- -- 62
2017-09-10 14:00:00 24.3 27 Nordeste 46 Este 0 -- -- 64
2017-09-10 13:00:00 23.8 31 Nordeste 46 Este 0 -- -- 61
2017-09-10 12:00:00 23.2 30 Nordeste 44 Nordeste 0 -- -- 64
2017-09-10 11:00:00 22.7 22 Nordeste 36 Nordeste 0 -- -- 66
2017-09-10 10:00:00 21.3 22 Nordeste 39 Este 0 -- -- 67
2017-09-10 09:00:00 19.8 14 Nordeste 26 Este 0 -- -- 76
2017-09-10 08:00:00 18.1 13 Nordeste 30 Nordeste 0 -- -- 85
2017-09-10 07:00:00 18.1 17 Nordeste 33 Nordeste 0 -- -- 83
2017-09-10 06:00:00 18 14 Nordeste 28 Norte 0 -- -- 85
2017-09-10 05:00:00 18.2 17 Nordeste 27 Nordeste 0 -- -- 86
2017-09-10 04:00:00 18.4 16 Nordeste 30 Nordeste 0 -- -- 87
2017-09-10 03:00:00 18.6 17 Nordeste 30 Nordeste 0 -- -- 88
2017-09-10 02:00:00 18.7 16 Nordeste 32 Nordeste 0 -- -- 86
2017-09-10 01:00:00 19.1 21 Nordeste 32 Nordeste 0 -- -- 90
2017-09-10 00:00:00 19.2 21 Nordeste 30 Este 0 -- -- 90
2017-09-09 23:00:00 19.6 18 Nordeste 35 Nordeste 0 -- -- 89
2017-09-09 22:00:00 19.7 14 Nordeste 22 Nordeste 0 -- -- 89
2017-09-09 21:00:00 19.9 16 Nordeste 26 Nordeste 0 -- -- 88
2017-09-09 20:00:00 21 13 Nordeste 27 Nordeste 0 -- -- 85
2017-09-09 19:00:00 22.3 18 Nordeste 33 Este 0 -- -- 80
2017-09-09 18:00:00 24.2 18 Nordeste 27 Nordeste 0 -- -- 72
2017-09-09 17:00:00 24.9 20 Nordeste 31 Nordeste 0 -- -- 70
2017-09-09 16:00:00 26.1 20 Este 30 Este 0 -- -- 67
2017-09-09 15:00:00 25.9 21 Nordeste 32 Este 0 -- -- 66
2017-09-09 14:00:00 25.8 20 Nordeste 35 Este 0 -- -- 67
2017-09-09 13:00:00 25.4 21 Nordeste 34 Nordeste 0 -- -- 68
2017-09-09 12:00:00 25.3 18 Nordeste 30 Este 0 -- -- 68
2017-09-09 11:00:00 23.7 14 Nordeste 24 Este 0 -- -- 74
2017-09-09 10:00:00 22.1 4 Este 15 Nordeste 0 -- -- 80
2017-09-09 09:00:00 19.2 5 Nordeste 15 Este 0 -- -- 96
2017-09-09 08:00:00 17.9 6 Norte 10 Noroeste 0 -- -- 95
2017-09-09 07:00:00 17.9 6 Norte 12 Norte 0 -- -- 95
2017-09-09 06:00:00 18.2 3 Norte 10 Norte 0 -- -- 94
2017-09-09 05:00:00 18.4 5 Noroeste 10 Noroeste 0 -- -- 93
2017-09-09 04:00:00 18.1 6 Norte 12 Norte 0 -- -- 90
2017-09-09 03:00:00 18.4 6 Norte 9 Noroeste 0 -- -- 91
2017-09-09 02:00:00 18.7 6 Norte 11 Norte 0 -- -- 91
2017-09-09 01:00:00 18.8 5 Noroeste 11 Norte 0 -- -- 91
2017-09-09 00:00:00 19.1 5 Norte 9 Nordeste 0 -- -- 91
2017-09-08 23:00:00 19.6 3 Norte 6 Norte 0 -- -- 90
2017-09-08 22:00:00 20 5 Norte 9 Norte 0 -- -- 88
2017-09-08 21:00:00 20.5 7 Nordeste 13 Nordeste 0 -- -- 87
2017-09-08 20:00:00 21.7 6 Nordeste 12 Este 0 -- -- 82
2017-09-08 19:00:00 23.4 5 Este 20 Nordeste 0 -- -- 75
2017-09-08 18:00:00 23.8 14 Nordeste 29 Nordeste 0 -- -- 75
2017-09-08 17:00:00 25.5 17 Nordeste 26 Nordeste 0 -- -- 69
2017-09-08 16:00:00 26.6 18 Nordeste 33 Este 0 -- -- 63
2017-09-08 15:00:00 25.2 21 Nordeste 32 Este 0 -- -- 68
2017-09-08 14:00:00 25.3 21 Nordeste 31 Este 0 -- -- 69
2017-09-08 13:00:00 24.8 22 Nordeste 32 Este 0 -- -- 70
2017-09-08 12:00:00 24.4 21 Nordeste 30 Nordeste 0 -- -- 71
2017-09-08 11:00:00 22.6 17 Nordeste 26 Este 0 -- -- 79
2017-09-08 10:00:00 21.9 12 Nordeste 20 Este 0 -- -- 84
2017-09-08 09:00:00 19.2 4 Nordeste 11 Norte 0 -- -- 95
2017-09-08 08:00:00 17.7 5 Noroeste 8 Noroeste 0 -- -- 94
2017-09-08 07:00:00 17.8 6 Noroeste 10 Noroeste 0 -- -- 93
2017-09-08 06:00:00 17.9 6 Norte 12 Nordeste 0 -- -- 95
2017-09-08 05:00:00 17.8 6 Norte 12 Noroeste 0 -- -- 94
2017-09-08 04:00:00 18.1 5 Noroeste 11 Norte 0 -- -- 93
2017-09-08 03:00:00 18.3 5 Norte 21 Nordeste 0 -- -- 92
2017-09-08 02:00:00 18.7 12 Nordeste 23 Nordeste 0 -- -- 92
2017-09-08 01:00:00 18.9 15 Nordeste 25 Nordeste 0 -- -- 91
2017-09-08 00:00:00 19.1 14 Nordeste 23 Nordeste 0 -- -- 90
2017-09-07 23:00:00 19.4 13 Nordeste 26 Nordeste 0 -- -- 90
2017-09-07 22:00:00 19.8 16 Nordeste 27 Nordeste 0 -- -- 87
2017-09-07 21:00:00 20.1 16 Nordeste 27 Nordeste 0 -- -- 87
2017-09-07 20:00:00 20.9 12 Nordeste 30 Nordeste 0 -- -- 84
2017-09-07 19:00:00 22.1 21 Nordeste 33 Nordeste 0 -- -- 80
2017-09-07 18:00:00 23.1 22 Nordeste 40 Nordeste 0 -- -- 75
2017-09-07 17:00:00 24.2 24 Nordeste 43 Nordeste 0 -- -- 70
2017-09-07 16:00:00 24.7 27 Nordeste 43 Este 0 -- -- 67
2017-09-07 15:00:00 25.2 25 Nordeste 42 Nordeste 0 -- -- 67
2017-09-07 14:00:00 24.8 28 Nordeste 54 Nordeste 0 -- -- 68
2017-09-07 13:00:00 24.5 26 Nordeste 42 Nordeste 0 -- -- 70
2017-09-07 12:00:00 23.7 29 Nordeste 44 Nordeste 0 -- -- 72
2017-09-07 11:00:00 23.2 27 Nordeste 43 Este 0 -- -- 74
2017-09-07 10:00:00 22.1 24 Nordeste 38 Nordeste 0 -- -- 78
2017-09-07 09:00:00 20.4 20 Nordeste 36 Nordeste 0 -- -- 84
2017-09-07 08:00:00 18.3 8 Nordeste 23 Nordeste 0 -- -- 86
2017-09-07 07:00:00 18.5 6 Nordeste 26 Nordeste 0 -- -- 86
2017-09-07 06:00:00 18.7 9 Nordeste 19 Nordeste 0 -- -- 86
2017-09-07 05:00:00 18.9 6 Nordeste 16 Este 0 -- -- 84
2017-09-07 04:00:00 19.5 11 Nordeste 24 Este 0 -- -- 82
2017-09-07 03:00:00 19.3 12 Nordeste 21 Nordeste 0 -- -- 80
2017-09-07 02:00:00 18.8 5 Noroeste 10 Noroeste 0 -- -- 74
2017-09-07 01:00:00 18.7 2 Noroeste 15 Oeste 0 -- -- 85
2017-09-07 00:00:00 19.2 2 Oeste 8 Oeste 0 -- -- 83
2017-09-06 23:00:00 19.9 6 Oeste 17 Sudoeste 0 -- -- 82
2017-09-06 22:00:00 19.8 8 Oeste 13 Oeste 0 -- -- 75
2017-09-06 21:00:00 20.8 10 Nordeste 27 Este 0 -- -- 73
2017-09-06 20:00:00 21.9 13 Nordeste 35 Nordeste 0 -- -- 69
2017-09-06 19:00:00 23.8 22 Nordeste 41 Nordeste 0 -- -- 60
2017-09-06 18:00:00 25.4 22 Nordeste 43 Este 0 -- -- 57
2017-09-06 17:00:00 25.9 26 Nordeste 48 Este 0 -- -- 55
2017-09-06 16:00:00 26.3 28 Nordeste 45 Este 0 -- -- 56
2017-09-06 15:00:00 26.4 27 Nordeste 44 Este 0 -- -- 54
2017-09-06 14:00:00 26.4 24 Nordeste 49 Este 0 -- -- 58
2017-09-06 13:00:00 25.8 24 Nordeste 41 Este 0 -- -- 59
2017-09-06 12:00:00 25.8 23 Este 38 Este 0 -- -- 58
2017-09-06 11:00:00 24.7 22 Nordeste 33 Nordeste 0 -- -- 61
2017-09-06 10:00:00 23.3 18 Nordeste 32 Nordeste 0 -- -- 66
2017-09-06 09:00:00 21.4 4 Nordeste 13 Nordeste 0 -- -- 71
2017-09-06 08:00:00 18.3 2 Sudoeste 9 Noroeste 0 -- -- 79
2017-09-06 07:00:00 18.3 3 Sudeste 9 Este 0 -- -- 81
2017-09-06 06:00:00 18.6 4 Noroeste 15 Oeste 0 -- -- 79
2017-09-06 05:00:00 19 13 Sudoeste 21 Oeste 0 -- -- 81
2017-09-06 04:00:00 18.9 4 Norte 18 Nordeste 0 -- -- 77
2017-09-06 03:00:00 20 14 Nordeste 28 Este 0 -- -- 73
2017-09-06 02:00:00 19.8 10 Nordeste 24 Nordeste 0 -- -- 74
2017-09-06 01:00:00 20.1 13 Nordeste 25 Este 0 -- -- 80
2017-09-06 00:00:00 19.8 11 Nordeste 27 Nordeste 0 -- -- 83
2017-09-05 23:00:00 19.9 16 Nordeste 25 Nordeste 0 -- -- 86
2017-09-05 22:00:00 19.8 13 Nordeste 32 Nordeste 0 -- -- 83
2017-09-05 21:00:00 20 22 Nordeste 36 Nordeste 0 -- -- 86
2017-09-05 20:00:00 20.6 20 Nordeste 40 Nordeste 0 -- -- 84
2017-09-05 19:00:00 21.9 26 Nordeste 40 Nordeste 0 -- -- 78
2017-09-05 18:00:00 23.2 26 Nordeste 47 Este 0 -- -- 73
2017-09-05 17:00:00 23.9 27 Nordeste 44 Nordeste 0 -- -- 69
2017-09-05 16:00:00 24.2 30 Nordeste 46 Nordeste 0 -- -- 69
2017-09-05 15:00:00 24.4 28 Nordeste 44 Nordeste 0 -- -- 68
2017-09-05 14:00:00 24.1 31 Nordeste 50 Este 0 -- -- 69
2017-09-05 13:00:00 23.8 30 Nordeste 56 Nordeste 0 -- -- 69
2017-09-05 12:00:00 23.6 28 Nordeste 46 Nordeste 0 -- -- 71
2017-09-05 11:00:00 22.3 30 Nordeste 46 Nordeste 0 -- -- 77
2017-09-05 10:00:00 21.7 23 Nordeste 36 Nordeste 0 -- -- 82
2017-09-05 09:00:00 20.2 21 Nordeste 31 Nordeste 0 -- -- 87
2017-09-05 08:00:00 19.6 10 Nordeste 18 Nordeste 0 -- -- 85
2017-09-05 07:00:00 20.1 13 Nordeste 23 Nordeste 0 -- -- 78
2017-09-05 06:00:00 20.5 6 Nordeste 22 Nordeste 0 -- -- 63
2017-09-05 05:00:00 20.5 8 Nordeste 17 Este 0 -- -- 65
2017-09-05 04:00:00 20.6 10 Nordeste 19 Nordeste 0 -- -- 68
2017-09-05 03:00:00 21.8 13 Nordeste 28 Nordeste 0 -- -- 53
2017-09-05 02:00:00 22.5 16 Nordeste 30 Nordeste 0 -- -- 48
2017-09-05 01:00:00 22.8 14 Nordeste 29 Nordeste 0 -- -- 46
2017-09-05 00:00:00 23.2 17 Nordeste 30 Nordeste 0 -- -- 44
2017-09-04 23:00:00 23.4 17 Nordeste 29 Nordeste 0 -- -- 44
2017-09-04 22:00:00 23.8 17 Nordeste 31 Nordeste 0 -- -- 41
2017-09-04 21:00:00 24 19 Nordeste 46 Nordeste 0 -- -- 38
2017-09-04 20:00:00 24.8 25 Nordeste 38 Nordeste 0 -- -- 36
2017-09-04 19:00:00 26.3 21 Nordeste 38 Nordeste 0 -- -- 36
2017-09-04 18:00:00 27 20 Nordeste 34 Nordeste 0 -- -- 39
2017-09-04 17:00:00 27.6 23 Nordeste 37 Nordeste 0 -- -- 44
2017-09-04 16:00:00 26.7 19 Nordeste 31 Este 0 -- -- 66
2017-09-04 15:00:00 26.5 19 Nordeste 32 Este 0 -- -- 66
2017-09-04 14:00:00 26.3 19 Nordeste 33 Este 0 -- -- 67
2017-09-04 13:00:00 25.7 22 Nordeste 31 Este 0 -- -- 69
2017-09-04 12:00:00 24.6 21 Nordeste 33 Nordeste 0 -- -- 74
2017-09-04 11:00:00 24 19 Nordeste 30 Nordeste 0 -- -- 76
2017-09-04 10:00:00 22.4 17 Nordeste 25 Nordeste 0 -- -- 82
2017-09-04 09:00:00 19.8 11 Nordeste 19 Nordeste 0 -- -- 86
2017-09-04 08:00:00 18.1 11 Norte 18 Norte 0 -- -- 92
2017-09-04 07:00:00 18.1 10 Nordeste 19 Nordeste 0 -- -- 93
2017-09-04 06:00:00 18.1 9 Nordeste 17 Nordeste 0 -- -- 94
2017-09-04 05:00:00 18.4 12 Nordeste 19 Nordeste 0 -- -- 95
2017-09-04 04:00:00 18.6 13 Nordeste 21 Nordeste 0 -- -- 94
2017-09-04 03:00:00 18.3 7 Norte 17 Nordeste 0 -- -- 94
2017-09-04 02:00:00 18.7 12 Nordeste 24 Nordeste 0 -- -- 94
2017-09-04 01:00:00 18.9 14 Nordeste 22 Nordeste 0 -- -- 94
2017-09-04 00:00:00 18.7 8 Nordeste 15 Nordeste 0 -- -- 93
2017-09-03 23:00:00 19 4 Norte 21 Nordeste 0 -- -- 91
2017-09-03 22:00:00 19.5 13 Nordeste 27 Nordeste 0 -- -- 90
2017-09-03 21:00:00 20.3 18 Nordeste 28 Nordeste 0 -- -- 89
2017-09-03 20:00:00 21 21 Nordeste 33 Nordeste 0 -- -- 83
2017-09-03 19:00:00 21.4 20 Nordeste 33 Nordeste 0 -- -- 82
2017-09-03 18:00:00 23 21 Nordeste 33 Nordeste 0 -- -- 76
2017-09-03 17:00:00 24.9 21 Nordeste 33 Nordeste 0 -- -- 71
2017-09-03 16:00:00 25.6 22 Nordeste 33 Este 0 -- -- 67
2017-09-03 15:00:00 25.6 21 Nordeste 36 Nordeste 0 -- -- 67
2017-09-03 14:00:00 25.2 24 Nordeste 38 Este 0 -- -- 67
2017-09-03 13:00:00 24.6 21 Nordeste 37 Este 0 -- -- 69
2017-09-03 12:00:00 24 25 Nordeste 38 Este 0 -- -- 70
2017-09-03 11:00:00 23.2 23 Nordeste 41 Este 0 -- -- 73
2017-09-03 10:00:00 21.5 21 Nordeste 33 Nordeste 0 -- -- 78
2017-09-03 09:00:00 19.8 19 Nordeste 31 Nordeste 0 -- -- 86
2017-09-03 08:00:00 19.3 14 Nordeste 35 Nordeste 0 -- -- 89
2017-09-03 07:00:00 18.9 14 Nordeste 24 Nordeste 0 -- -- 87
2017-09-03 06:00:00 18.9 12 Norte 21 Nordeste 0 -- -- 86
2017-09-03 05:00:00 18.8 8 Norte 17 Nordeste 0 -- -- 83
2017-09-03 04:00:00 18.9 9 Norte 17 Nordeste 0 -- -- 84
2017-09-03 03:00:00 19.6 13 Nordeste 24 Nordeste 0 -- -- 86
2017-09-03 02:00:00 19.4 10 Nordeste 22 Nordeste 0 -- -- 87
2017-09-03 01:00:00 19 10 Nordeste 21 Nordeste 0 -- -- 87
2017-09-03 00:00:00 19 11 Nordeste 24 Nordeste 0 -- -- 85
2017-09-02 23:00:00 19.2 13 Nordeste 26 Nordeste 0 -- -- 85
2017-09-02 22:00:00 19.2 5 Nordeste 13 Nordeste 0 -- -- 84
2017-09-02 21:00:00 19.8 9 Nordeste 25 Nordeste 0 -- -- 86
2017-09-02 20:00:00 20.6 17 Nordeste 31 Este 0 -- -- 83
2017-09-02 19:00:00 22.1 20 Nordeste 34 Nordeste 0 -- -- 75
2017-09-02 18:00:00 22.7 21 Nordeste 37 Nordeste 0 -- -- 72
2017-09-02 17:00:00 22.8 23 Nordeste 37 Nordeste 0 -- -- 68
2017-09-02 16:00:00 23.8 24 Este 38 Nordeste 0 -- -- 67
2017-09-02 15:00:00 23.4 26 Nordeste 39 Este 0 -- -- 70
2017-09-02 14:00:00 23.7 25 Nordeste 39 Este 0 -- -- 69
2017-09-02 13:00:00 23.9 24 Nordeste 37 Nordeste 0 -- -- 66
2017-09-02 12:00:00 23.3 21 Nordeste 35 Este 0 -- -- 69
2017-09-02 11:00:00 22.9 25 Nordeste 34 Nordeste 0 -- -- 68
2017-09-02 10:00:00 22 22 Nordeste 34 Este 0 -- -- 70
2017-09-02 09:00:00 20.4 15 Nordeste 30 Nordeste 0 -- -- 74
2017-09-02 08:00:00 18 10 Norte 19 Norte 0 -- -- 78
2017-09-02 07:00:00 17.6 11 Nordeste 23 Nordeste 0 -- -- 82
2017-09-02 06:00:00 18.1 15 Nordeste 26 Nordeste 0 -- -- 83
2017-09-02 05:00:00 17.7 13 Norte 24 Nordeste 0 -- -- 81
2017-09-02 04:00:00 17.8 9 Nordeste 17 Nordeste 0 -- -- 80
2017-09-02 03:00:00 18.1 4 Noroeste 19 Nordeste 0 -- -- 80
2017-09-02 02:00:00 18.9 14 Nordeste 28 Nordeste 0 -- -- 76
2017-09-02 01:00:00 18.6 4 Noroeste 12 Este 0 -- -- 80
2017-09-02 00:00:00 19 4 Nordeste 12 Este 0 -- -- 81
2017-09-01 23:00:00 18.9 3 Oeste 12 Norte 0 -- -- 79
2017-09-01 22:00:00 19 2 Oeste 18 Este 0 -- -- 80
2017-09-01 21:00:00 19.5 2 Oeste 23 Este 0 -- -- 75
2017-09-01 20:00:00 20.5 17 Este 28 Este 0 -- -- 74
2017-09-01 19:00:00 21.2 13 Este 30 Este 0 -- -- 72
2017-09-01 18:00:00 21.5 16 Nordeste 30 Este 0 -- -- 74
2017-09-01 17:00:00 22 18 Nordeste 31 Nordeste 0 -- -- 70
2017-09-01 16:00:00 22.5 16 Este 34 Este 0 -- -- 70
2017-09-01 15:00:00 23.6 20 Este 37 Este 0 -- -- 66
2017-09-01 14:00:00 23.8 17 Nordeste 34 Este 0 -- -- 61
2017-09-01 13:00:00 21.7 18 Nordeste 25 Este 0 -- -- 71
2017-09-01 12:00:00 21.7 14 Este 34 Nordeste 0 -- -- 70
2017-09-01 11:00:00 21.8 10 Este 26 Este 0 -- -- 72
2017-09-01 10:00:00 21.2 4 Sudeste 11 Sudoeste 0 -- -- 72
2017-09-01 09:00:00 20 3 Sudeste 11 Oeste 0 -- -- 77
2017-09-01 08:00:00 18.7 3 Sudoeste 15 Oeste 0 -- -- 82
2017-09-01 07:00:00 18.6 11 Oeste 14 Oeste 0 -- -- 83
2017-09-01 06:00:00 18.6 8 Oeste 15 Nordeste 0 -- -- 83
2017-09-01 05:00:00 19.3 4 Sudeste 12 Norte 0 -- -- 87
2017-09-01 04:00:00 19.4 4 Este 21 Sudoeste 0 -- -- 87
2017-09-01 03:00:00 19.6 13 Sudoeste 21 Sudoeste 0 -- -- 85
2017-09-01 02:00:00 19.3 4 Oeste 12 Oeste 0 -- -- 81
2017-09-01 01:00:00 19.4 4 Oeste 12 Oeste 0 -- -- 82
2017-09-01 00:00:00 19.9 10 Oeste 24 Sudoeste 0 -- -- 84
2017-08-31 23:00:00 20.5 9 Sudoeste 16 Sudoeste 0 -- -- 86
2017-08-31 22:00:00 21.1 5 Sur 30 Sudoeste 0 -- -- 75
2017-08-31 21:00:00 21.2 14 Sudoeste 23 Sudoeste 0 -- -- 74
2017-08-31 20:00:00 22.4 10 Este 25 Nordeste 0 -- -- 66
2017-08-31 19:00:00 23.4 18 Nordeste 40 Este 0 -- -- 65
2017-08-31 18:00:00 23.4 22 Nordeste 39 Este 0 -- -- 70
2017-08-31 17:00:00 24.4 23 Nordeste 42 Este 0 -- -- 68
2017-08-31 16:00:00 25.5 24 Este 46 Este 0 -- -- 63
2017-08-31 15:00:00 25.4 23 Nordeste 55 Este 0 -- -- 64
2017-08-31 14:00:00 25.5 28 Nordeste 54 Este 0 -- -- 58
2017-08-31 13:00:00 25.2 30 Nordeste 58 Este 0 -- -- 61
2017-08-31 12:00:00 24.8 28 Nordeste 46 Nordeste 0 -- -- 67
2017-08-31 11:00:00 23.5 21 Nordeste 34 Nordeste 0 -- -- 75
2017-08-31 10:00:00 22.8 16 Nordeste 31 Nordeste 0 -- -- 76
2017-08-31 09:00:00 20.8 5 Noroeste 10 Noroeste 0 -- -- 80
2017-08-31 08:00:00 18.9 4 Norte 25 Nordeste 0 -- -- 84
2017-08-31 07:00:00 18.5 7 Oeste 28 Nordeste 0 -- -- 81
2017-08-31 06:00:00 19.1 19 Nordeste 30 Nordeste 0 -- -- 87
2017-08-31 05:00:00 18.3 7 Noroeste 12 Noroeste 0 -- -- 80
2017-08-31 04:00:00 18.6 7 Noroeste 9 Noroeste 0 -- -- 82
2017-08-31 03:00:00 19 5 Noroeste 17 Sudoeste 0 -- -- 81
2017-08-31 02:00:00 18.7 6 Noroeste 15 Oeste 0 -- -- 81
2017-08-31 01:00:00 19.2 9 Oeste 12 Oeste 0 -- -- 84
2017-08-31 00:00:00 19.8 4 Nordeste 19 Oeste 0 -- -- 79
2017-08-30 23:00:00 20.5 14 Oeste 21 Oeste 0 -- -- 79
2017-08-30 22:00:00 21.1 13 Sudoeste 18 Sudoeste 0 -- -- 76
2017-08-30 21:00:00 21.2 8 Oeste 15 Nordeste 0 -- -- 71
2017-08-30 20:00:00 22.1 11 Este 36 Nordeste 0 -- -- 69
2017-08-30 19:00:00 23.5 22 Este 44 Nordeste 0 -- -- 65
2017-08-30 18:00:00 24.5 26 Nordeste 44 Este 0 -- -- 62
2017-08-30 17:00:00 24.7 23 Nordeste 41 Este 0 -- -- 65
2017-08-30 16:00:00 25.4 24 Nordeste 41 Este 0 -- -- 65
2017-08-30 15:00:00 25.4 27 Este 45 Este 0 -- -- 63
2017-08-30 14:00:00 25.8 28 Este 46 Este 0 -- -- 59
2017-08-30 13:00:00 25 26 Este 50 Nordeste 0 -- -- 61
2017-08-30 12:00:00 24.9 26 Nordeste 44 Nordeste 0 -- -- 56
2017-08-30 11:00:00 23.9 27 Nordeste 43 Este 0 -- -- 59
2017-08-30 10:00:00 23.1 19 Nordeste 35 Este 0 -- -- 65
2017-08-30 09:00:00 21 4 Sur 15 Noroeste 0 -- -- 69
2017-08-30 08:00:00 18.1 6 Noroeste 14 Oeste 0 -- -- 77
2017-08-30 07:00:00 18.5 6 Noroeste 14 Noroeste 0 -- -- 77
2017-08-30 06:00:00 18.4 4 Oeste 17 Noroeste 0 -- -- 79
2017-08-30 05:00:00 18.3 11 Oeste 13 Oeste 0 -- -- 78
2017-08-30 04:00:00 18.3 5 Oeste 12 Oeste 0 -- -- 78
2017-08-30 03:00:00 18.2 6 Noroeste 11 Noroeste 0 -- -- 74
2017-08-30 02:00:00 18.8 5 Oeste 15 Norte 0 -- -- 77
2017-08-30 01:00:00 18.8 5 Noroeste 11 Noroeste 0 -- -- 76
2017-08-30 00:00:00 18.9 7 Noroeste 13 Noroeste 0 -- -- 75
2017-08-29 23:00:00 19 3 Noroeste 12 Oeste 0 -- -- 73
2017-08-29 22:00:00 19.7 6 Noroeste 26 Nordeste 0 -- -- 73
2017-08-29 21:00:00 20.3 19 Nordeste 32 Nordeste 0 -- -- 71
2017-08-29 20:00:00 20.7 14 Nordeste 29 Nordeste 0 -- -- 76
2017-08-29 19:00:00 21.4 16 Nordeste 39 Nordeste 0 -- -- 77
2017-08-29 18:00:00 22.9 19 Nordeste 37 Este 0 -- -- 68
2017-08-29 17:00:00 22.8 27 Este 43 Este 0 -- -- 70
2017-08-29 16:00:00 23.2 22 Nordeste 45 Nordeste 0 -- -- 70
2017-08-29 15:00:00 24 27 Nordeste 44 Nordeste 0 -- -- 69
2017-08-29 14:00:00 24.9 27 Nordeste 48 Nordeste 0 -- -- 60
2017-08-29 13:00:00 24.2 30 Nordeste 51 Nordeste 0 -- -- 63
2017-08-29 12:00:00 22.9 28 Nordeste 42 Este 0 -- -- 70
2017-08-29 11:00:00 23.6 24 Nordeste 40 Nordeste 0 -- -- 64
2017-08-29 10:00:00 22.8 20 Nordeste 33 Nordeste 0 -- -- 63
2017-08-29 09:00:00 20.5 8 Este 18 Este 0 -- -- 77
2017-08-29 08:00:00 17.7 13 Oeste 18 Oeste 0 -- -- 81
2017-08-29 07:00:00 17.7 4 Noroeste 12 Noroeste 0 -- -- 81
2017-08-29 06:00:00 18.1 4 Norte 20 Nordeste 0 -- -- 82
2017-08-29 05:00:00 19.1 9 Norte 23 Norte 0 -- -- 81
2017-08-29 04:00:00 18.7 13 Nordeste 25 Nordeste 0 -- -- 81
2017-08-29 03:00:00 18.6 13 Nordeste 26 Nordeste 0 -- -- 77
2017-08-29 02:00:00 18.7 13 Nordeste 27 Nordeste 0 -- -- 82
2017-08-29 01:00:00 19.3 18 Nordeste 30 Nordeste 0 -- -- 81
2017-08-29 00:00:00 19.2 11 Nordeste 31 Nordeste 0 -- -- 79
2017-08-28 23:00:00 19.3 8 Nordeste 32 Nordeste 0 -- -- 83
2017-08-28 22:00:00 19.8 19 Nordeste 35 Nordeste 0 -- -- 84
2017-08-28 21:00:00 20.1 19 Nordeste 32 Nordeste 0 -- -- 86
2017-08-28 20:00:00 20.6 20 Nordeste 36 Nordeste 0 -- -- 82
2017-08-28 19:00:00 20.9 24 Nordeste 35 Nordeste 0 -- -- 81
2017-08-28 18:00:00 21.4 25 Nordeste 37 Nordeste 0 -- -- 78
2017-08-28 17:00:00 23.2 26 Nordeste 44 Nordeste 0 -- -- 70
2017-08-28 16:00:00 23.6 26 Nordeste 43 Este 0 -- -- 68
2017-08-28 15:00:00 23.9 27 Nordeste 44 Nordeste 0 -- -- 67
2017-08-28 14:00:00 24.1 28 Nordeste 46 Nordeste 0 -- -- 68
2017-08-28 13:00:00 24.3 28 Nordeste 44 Nordeste 0 -- -- 66
2017-08-28 12:00:00 23.4 27 Nordeste 40 Este 0 -- -- 71
2017-08-28 11:00:00 23.1 25 Nordeste 39 Este 0 -- -- 73
2017-08-28 10:00:00 21.5 18 Nordeste 27 Este 0 -- -- 82
2017-08-28 09:00:00 20 11 Nordeste 19 Nordeste 0 -- -- 85
2017-08-28 08:00:00 19 7 Norte 24 Nordeste 0 -- -- 91
2017-08-28 07:00:00 19.1 14 Nordeste 26 Nordeste 0 -- -- 91
2017-08-28 06:00:00 19.2 17 Nordeste 29 Nordeste 0 -- -- 91
2017-08-28 05:00:00 19.4 14 Nordeste 27 Nordeste 0 -- -- 89
2017-08-28 04:00:00 19.5 18 Nordeste 32 Nordeste 0 -- -- 89
2017-08-28 03:00:00 19.8 19 Nordeste 36 Nordeste 0 -- -- 89
2017-08-28 02:00:00 20 21 Nordeste 51 Nordeste 0 -- -- 88
2017-08-28 01:00:00 20.1 12 Este 32 Nordeste 0 -- -- 90
2017-08-28 00:00:00 20.1 19 Nordeste 29 Nordeste 0 -- -- 87
2017-08-27 23:00:00 20.1 14 Nordeste 24 Este 0 -- -- 89
2017-08-27 22:00:00 20.1 7 Nordeste 20 Este 0 -- -- 86
2017-08-27 21:00:00 20.4 11 Nordeste 34 Nordeste 0 -- -- 87
2017-08-27 20:00:00 21.2 15 Nordeste 25 Nordeste 0 -- -- 85
2017-08-27 19:00:00 21.7 16 Nordeste 25 Nordeste 0 -- -- 84
2017-08-27 18:00:00 22.5 14 Este 28 Nordeste 0 -- -- 80
2017-08-27 17:00:00 23.2 20 Nordeste 33 Nordeste 0 -- -- 76
2017-08-27 16:00:00 23.5 17 Nordeste 35 Nordeste 0 -- -- 77
2017-08-27 15:00:00 24.9 23 Nordeste 33 Nordeste 0 -- -- 72
2017-08-27 14:00:00 24.1 21 Nordeste 41 Nordeste 0 -- -- 74
2017-08-27 13:00:00 24.9 26 Nordeste 36 Nordeste 0 -- -- 70
2017-08-27 12:00:00 24.6 20 Nordeste 32 Nordeste 0 -- -- 72
2017-08-27 11:00:00 22.8 22 Nordeste 32 Nordeste 0 -- -- 77
2017-08-27 10:00:00 22.9 9 Este 14 Nordeste 0 -- -- 73
2017-08-27 09:00:00 20.7 8 Nordeste 12 Este 0 -- -- 86
2017-08-27 08:00:00 19.5 6 Norte 14 Norte 0 -- -- 90
2017-08-27 07:00:00 19.4 5 Nordeste 9 Nordeste 0 -- -- 90
2017-08-27 06:00:00 19.6 5 Nordeste 14 Norte 0 -- -- 91
2017-08-27 05:00:00 19.9 6 Norte 9 Norte 0 -- -- 89
2017-08-27 04:00:00 20.3 5 Norte 9 Este 0 -- -- 87
2017-08-27 03:00:00 20.5 5 Norte 9 Nordeste 0 -- -- 80
2017-08-27 02:00:00 21.3 2 Norte 6 Sudeste 0 -- -- 79
2017-08-27 01:00:00 22.4 2 Norte 13 Norte 0 -- -- 63
2017-08-27 00:00:00 21.5 5 Noroeste 9 Norte 0 -- -- 73
2017-08-26 23:00:00 21.3 4 Norte 10 Este 0 -- -- 87
2017-08-26 22:00:00 21.8 6 Nordeste 11 Este 0 -- -- 84
2017-08-26 21:00:00 23 6 Este 10 Este 0 -- -- 77
2017-08-26 20:00:00 25 2 Nordeste 10 Nordeste 0 -- -- 68
2017-08-26 19:00:00 26 8 Este 16 Nordeste 0 -- -- 64
2017-08-26 18:00:00 27.6 10 Este 21 Sudeste 0 -- -- 57
2017-08-26 17:00:00 29.1 9 Este 19 Este 0 -- -- 54
2017-08-26 16:00:00 29 12 Este 19 Este 0 -- -- 58
2017-08-26 15:00:00 28.7 13 Este 23 Este 0 -- -- 59
2017-08-26 14:00:00 29.6 6 Este 19 Este 0 -- -- 59
2017-08-26 13:00:00 26.9 7 Sudeste 21 Sudeste 0 -- -- 68
2017-08-26 12:00:00 26.2 11 Nordeste 18 Este 0 -- -- 71
2017-08-26 11:00:00 26.3 7 Sudeste 12 Este 0 -- -- 71
2017-08-26 10:00:00 23.7 4 Sudeste 14 Sudeste 0 -- -- 82
2017-08-26 09:00:00 21.1 3 Noroeste 6 Sudeste 0 -- -- 93
2017-08-26 08:00:00 20.6 3 Este 9 Este 0 -- -- 94
2017-08-26 07:00:00 21 5 Nordeste 9 Este 0 -- -- 92
2017-08-26 06:00:00 20.9 4 Sur 7 Sudoeste 0 -- -- 93
2017-08-26 05:00:00 20.8 4 Sudeste 11 Sudeste 0 -- -- 92
2017-08-26 04:00:00 21.9 3 Nordeste 11 Sudeste 0 -- -- 83
2017-08-26 03:00:00 23 3 Noroeste 8 Sudeste 0 -- -- 58
2017-08-26 02:00:00 22.8 3 Sudeste 9 Este 0 -- -- 82
2017-08-26 01:00:00 24.8 4 Noroeste 11 Noroeste 0 -- -- 53
2017-08-26 00:00:00 22.9 7 Noroeste 21 Sur 0 -- -- 79